Time;durP1;ratioP1;P1;durP2;ratioP2;P2;SDS_P1;SDS_P2;PMS_P1;PMS_P2;Temp;Humidity;BMP_temperature;BMP_pressure;BME280_temperature;BME280_humidity;BME280_pressure;Samples;Min_cycle;Max_cycle;Signal;HPM_P1;HPM_P2
2021/10/16 00:02:06;;;;;;;11.15;5.93;;;;;;;5.02;77.41;101020.44;8539470;33;20543;-72
2021/10/16 00:07:09;;;;;;;11.30;5.78;;;;;;;4.90;77.73;101026.28;8539860;33;20145;-72
2021/10/16 00:12:13;;;;;;;13.25;5.80;;;;;;;4.91;78.12;101028.00;8533925;33;20676;-72
2021/10/16 00:17:16;;;;;;;12.40;6.15;;;;;;;5.01;78.06;101027.53;8525295;33;20554;-72
2021/10/16 00:22:20;;;;;;;14.73;5.90;;;;;;;5.04;77.61;101034.50;8524756;33;20527;-72
2021/10/16 00:27:25;;;;;;;9.90;5.28;;;;;;;5.01;77.60;101029.34;8519848;33;20400;-72
2021/10/16 00:32:28;;;;;;;10.30;4.70;;;;;;;4.90;77.22;101034.28;8519443;33;20216;-72
2021/10/16 00:37:32;;;;;;;9.48;4.85;;;;;;;4.75;77.30;101035.88;8519949;33;20224;-72
2021/10/16 00:42:45;;;;;;;8.68;6.03;;;;;;;4.64;77.13;101032.84;8520462;33;20149;-72
2021/10/16 00:47:50;;;;;;;10.60;5.65;;;;;;;4.62;77.48;101031.09;8521894;33;20857;-71
2021/10/16 00:52:53;;;;;;;12.50;5.07;;;;;;;4.58;77.62;101026.88;8522686;33;20141;-72
2021/10/16 00:58:00;;;;;;;10.13;5.68;;;;;;;4.61;77.38;101026.72;8535257;33;20512;-72
2021/10/16 01:03:04;;;;;;;7.45;4.80;;;;;;;4.40;77.08;101028.56;8540797;33;20422;-73
2021/10/16 01:08:10;;;;;;;13.75;5.40;;;;;;;4.36;77.05;101036.72;8540992;33;20149;-72
2021/10/16 01:13:16;;;;;;;8.77;5.13;;;;;;;4.32;77.42;101040.47;8540685;33;20863;-72
2021/10/16 01:18:21;;;;;;;10.65;5.85;;;;;;;4.34;77.38;101038.63;8535635;33;20749;-73
2021/10/16 01:23:26;;;;;;;10.15;6.07;;;;;;;4.34;77.66;101035.97;8525497;33;20458;-73
2021/10/16 01:28:29;;;;;;;12.32;6.53;;;;;;;4.27;77.89;101050.44;8523247;33;20149;-72
2021/10/16 01:33:34;;;;;;;15.98;7.07;;;;;;;4.24;77.94;101032.81;8524864;33;20341;-72
2021/10/16 01:38:39;;;;;;;8.30;5.60;;;;;;;4.14;77.77;101035.03;8522955;33;20215;-72
2021/10/16 01:43:43;;;;;;;8.05;5.63;;;;;;;4.16;77.95;101017.19;8500543;33;20451;-72
2021/10/16 01:48:47;;;;;;;17.52;7.18;;;;;;;4.15;78.14;101033.25;8524373;33;20242;-72
2021/10/16 01:53:52;;;;;;;10.20;5.95;;;;;;;4.15;77.98;101028.78;8531354;33;20411;-73
2021/10/16 01:58:55;;;;;;;11.55;6.10;;;;;;;4.11;77.92;101029.88;8537957;33;20534;-73
2021/10/16 02:04:05;;;;;;;11.73;6.03;;;;;;;4.04;78.15;101023.06;8539648;33;20503;-73
2021/10/16 02:09:11;;;;;;;8.55;5.85;;;;;;;4.00;78.14;101034.75;8544186;33;20428;-73
2021/10/16 02:14:16;;;;;;;12.63;6.55;;;;;;;3.98;77.73;101026.00;8519576;33;20314;-73
2021/10/16 02:19:22;;;;;;;10.98;6.85;;;;;;;3.85;77.60;101035.44;8522045;33;21039;-73
2021/10/16 02:24:27;;;;;;;13.98;6.43;;;;;;;3.86;77.95;101026.53;8542954;33;20422;-73
2021/10/16 02:29:30;;;;;;;9.88;6.30;;;;;;;3.91;78.11;101025.41;8537143;33;20239;-72
2021/10/16 02:34:40;;;;;;;12.00;6.95;;;;;;;3.82;78.03;101043.53;8514155;33;20409;-73
2021/10/16 02:39:52;;;;;;;11.23;6.38;;;;;;;3.80;78.24;101037.41;8541031;33;21028;-73
2021/10/16 02:44:57;;;;;;;10.50;6.38;;;;;;;3.75;78.68;101045.56;8512018;33;20153;-73
2021/10/16 02:50:00;;;;;;;14.55;6.90;;;;;;;3.76;78.38;101044.66;8528186;33;20546;-72
2021/10/16 02:55:05;;;;;;;14.35;7.45;;;;;;;3.77;78.44;101042.88;8546846;33;20179;-73
2021/10/16 03:00:27;;;;;;;10.75;7.10;;;;;;;3.73;78.75;101048.31;8504880;33;20929;-73
2021/10/16 03:05:37;;;;;;;13.27;6.68;;;;;;;3.69;78.39;101045.84;8526387;33;20160;-73
2021/10/16 03:10:50;;;;;;;12.25;6.63;;;;;;;3.57;78.32;101049.03;8525286;33;20187;-73
2021/10/16 03:16:06;;;;;;;13.15;6.75;;;;;;;3.57;78.35;101041.91;8503108;33;20413;-73
2021/10/16 03:21:10;;;;;;;14.48;7.18;;;;;;;3.55;78.31;101054.38;8504370;33;20182;-72
2021/10/16 03:26:15;;;;;;;12.63;7.22;;;;;;;3.45;78.00;101061.84;8505048;33;20153;-73
2021/10/16 03:31:19;;;;;;;13.43;7.30;;;;;;;3.39;78.29;101056.78;8542734;33;20219;-74
2021/10/16 03:36:22;;;;;;;10.68;6.70;;;;;;;3.33;78.49;101057.06;8540485;33;20424;-72
2021/10/16 03:41:27;;;;;;;12.02;7.28;;;;;;;3.22;78.29;101061.94;8535043;33;20157;-72
2021/10/16 03:46:32;;;;;;;13.20;7.50;;;;;;;3.24;78.24;101047.66;8503885;33;20156;-73
2021/10/16 03:51:35;;;;;;;12.02;6.88;;;;;;;3.32;78.03;101047.38;8501822;33;21015;-74
2021/10/16 03:56:40;;;;;;;9.35;7.10;;;;;;;3.14;77.68;101054.25;8500396;33;20429;-72
2021/10/16 04:01:43;;;;;;;14.07;7.85;;;;;;;3.12;78.02;101052.59;8524618;33;20153;-72
2021/10/16 04:06:46;;;;;;;8.55;6.90;;;;;;;3.04;77.99;101053.78;8524732;33;20498;-74
2021/10/16 04:11:52;;;;;;;14.35;7.13;;;;;;;2.89;79.06;101045.53;8524169;33;20412;-71
2021/10/16 04:16:57;;;;;;;15.57;8.20;;;;;;;2.86;79.18;101050.97;8522477;33;20936;-72
2021/10/16 04:22:00;;;;;;;14.57;7.65;;;;;;;2.86;79.40;101059.78;8501174;33;20145;-74
2021/10/16 04:27:08;;;;;;;12.10;7.70;;;;;;;2.78;78.82;101069.81;8501676;33;20141;-72
2021/10/16 04:32:17;;;;;;;12.20;7.90;;;;;;;2.83;79.07;101068.72;8523610;33;20434;-72
2021/10/16 04:37:20;;;;;;;17.33;7.68;;;;;;;2.86;79.11;101066.88;8523256;33;20144;-72
2021/10/16 04:42:24;;;;;;;13.68;8.35;;;;;;;3.01;79.56;101071.59;8501029;33;20160;-74
2021/10/16 04:47:28;;;;;;;12.90;8.10;;;;;;;3.08;79.26;101070.44;8516426;33;20428;-72
2021/10/16 04:52:33;;;;;;;12.77;7.70;;;;;;;3.11;78.97;101067.66;8512453;33;20135;-73
2021/10/16 04:57:42;;;;;;;11.82;7.85;;;;;;;2.99;78.92;101078.72;8514953;33;20163;-71
2021/10/16 05:02:46;;;;;;;16.00;7.80;;;;;;;2.92;79.36;101078.13;8517488;33;20397;-71
2021/10/16 05:07:49;;;;;;;11.52;7.30;;;;;;;2.82;79.33;101072.28;8520695;33;20495;-74
2021/10/16 05:12:54;;;;;;;14.50;9.05;;;;;;;2.77;79.53;101074.28;8500330;33;20595;-73
2021/10/16 05:17:58;;;;;;;16.67;7.97;;;;;;;2.84;79.82;101072.22;8515589;33;20470;-73
2021/10/16 05:23:11;;;;;;;14.07;7.80;;;;;;;2.92;79.99;101071.94;8491514;33;20625;-73
2021/10/16 05:28:16;;;;;;;15.82;8.43;;;;;;;2.90;79.86;101073.78;8498006;33;20425;-74
2021/10/16 05:33:20;;;;;;;15.07;8.20;;;;;;;2.91;80.07;101071.09;8534313;33;20918;-74
2021/10/16 05:38:26;;;;;;;13.75;8.15;;;;;;;2.92;79.65;101075.47;8514746;33;20165;-74
2021/10/16 05:43:32;;;;;;;18.45;10.23;;;;;;;2.88;79.58;101078.28;8514351;33;20141;-74
2021/10/16 05:48:35;;;;;;;15.73;9.48;;;;;;;2.86;79.92;101077.50;8539132;33;20516;-72
2021/10/16 05:53:38;;;;;;;23.25;10.95;;;;;;;2.85;79.83;101081.91;8516912;33;20425;-72
2021/10/16 05:58:45;;;;;;;17.50;9.98;;;;;;;2.82;79.39;101071.41;8523329;33;20414;-73
2021/10/16 06:03:48;;;;;;;20.05;9.65;;;;;;;2.86;79.59;101080.16;8506047;33;20219;-72
2021/10/16 06:08:52;;;;;;;19.73;9.90;;;;;;;2.96;79.78;101086.81;8500154;33;20954;-73
2021/10/16 06:13:56;;;;;;;15.05;8.75;;;;;;;3.14;79.61;101098.53;8465838;33;20200;-72
2021/10/16 06:19:03;;;;;;;12.85;8.40;;;;;;;3.50;79.45;101097.06;8476608;33;20941;-73
2021/10/16 06:24:08;;;;;;;13.40;8.90;;;;;;;3.75;78.41;101104.03;8487270;33;20430;-72
2021/10/16 06:29:24;;;;;;;16.42;9.65;;;;;;;4.18;78.45;101102.25;8485323;33;20552;-73
2021/10/16 06:34:28;;;;;;;14.30;8.98;;;;;;;4.43;76.53;101104.69;8465106;33;20932;-73
2021/10/16 06:39:31;;;;;;;16.92;8.80;;;;;;;4.62;75.52;101110.94;8482643;33;21129;-72
2021/10/16 06:44:38;;;;;;;14.38;8.20;;;;;;;4.63;74.69;101125.09;8487626;33;20486;-72
2021/10/16 06:50:19;;;;;;;13.50;7.10;;;;;;;4.58;75.14;101119.13;8478615;33;20267;-72
2021/10/16 06:55:23;;;;;;;14.35;8.45;;;;;;;4.56;75.37;101127.19;8485115;33;20516;-72
2021/10/16 07:00:27;;;;;;;16.02;8.18;;;;;;;4.67;75.29;101115.19;8484059;33;20214;-72
2021/10/16 07:05:36;;;;;;;18.55;8.75;;;;;;;4.74;75.27;101120.16;8462368;33;21037;-72
2021/10/16 07:10:41;;;;;;;14.77;8.95;;;;;;;4.95;75.21;101126.31;8463139;33;20457;-73
2021/10/16 07:15:45;;;;;;;15.05;8.13;;;;;;;5.10;75.13;101130.13;8485103;33;20149;-73
2021/10/16 07:20:48;;;;;;;17.90;9.07;;;;;;;5.16;75.28;101127.16;8461569;33;20427;-72
2021/10/16 07:26:12;;;;;;;17.38;8.57;;;;;;;5.24;75.23;101134.81;8499880;33;20464;-70
2021/10/16 07:31:16;;;;;;;16.95;8.63;;;;;;;5.24;75.60;101133.00;8504322;33;20184;-71
2021/10/16 07:36:19;;;;;;;23.92;9.60;;;;;;;5.45;75.75;101130.25;8503913;33;20412;-71
2021/10/16 07:41:22;;;;;;;17.63;9.55;;;;;;;5.78;75.48;101146.41;8493836;33;20422;-71
2021/10/16 07:46:27;;;;;;;18.38;9.75;;;;;;;6.22;75.03;101156.66;8500807;33;20423;-71
2021/10/16 07:51:30;;;;;;;16.85;9.75;;;;;;;6.55;74.24;101155.88;8493513;33;20433;-74
2021/10/16 07:56:33;;;;;;;18.77;10.18;;;;;;;6.73;73.87;101152.25;8485915;33;20426;-71
2021/10/16 08:01:38;;;;;;;20.08;9.75;;;;;;;6.81;73.52;101152.72;8484337;33;20133;-72
2021/10/16 08:06:41;;;;;;;19.65;10.77;;;;;;;6.87;73.28;101156.00;8490777;33;20441;-72
2021/10/16 08:11:45;;;;;;;14.77;10.30;;;;;;;7.02;72.73;101148.06;8475903;33;20208;-71
2021/10/16 08:16:49;;;;;;;18.27;9.73;;;;;;;7.08;72.27;101162.06;8428067;33;20690;-72
2021/10/16 08:21:53;;;;;;;18.23;9.23;;;;;;;7.34;72.53;101163.28;8431831;34;20480;-71
2021/10/16 08:26:56;;;;;;;19.30;10.63;;;;;;;7.68;72.44;101165.81;8432433;34;20162;-72
2021/10/16 08:32:01;;;;;;;19.92;9.95;;;;;;;7.89;70.83;101154.81;8432583;34;20613;-71
2021/10/16 08:37:05;;;;;;;18.60;10.77;;;;;;;7.93;71.40;101156.38;8431270;34;20455;-71
2021/10/16 08:42:09;;;;;;;20.25;10.65;;;;;;;8.09;71.19;101153.66;8432490;34;20487;-72
2021/10/16 08:47:13;;;;;;;18.30;10.90;;;;;;;8.60;71.32;101146.19;8406057;34;20185;-72
2021/10/16 08:52:17;;;;;;;18.58;10.70;;;;;;;8.99;70.11;101147.38;8431553;34;20432;-72
2021/10/16 08:57:20;;;;;;;15.45;10.40;;;;;;;9.06;68.38;101148.72;8436211;34;20184;-73
2021/10/16 09:02:37;;;;;;;16.23;9.40;;;;;;;9.03;68.06;101147.09;8430933;34;20466;-73
2021/10/16 09:07:41;;;;;;;14.68;8.95;;;;;;;9.53;67.88;101147.50;8429900;34;20515;-72
2021/10/16 09:12:44;;;;;;;14.07;9.10;;;;;;;9.66;67.20;101152.97;8428031;34;20208;-72
2021/10/16 09:18:03;;;;;;;17.83;9.18;;;;;;;9.75;67.37;101144.31;8425308;34;20476;-72
2021/10/16 09:23:08;;;;;;;22.88;10.32;;;;;;;9.57;67.48;101142.81;8425236;34;21147;-72
2021/10/16 09:28:14;;;;;;;17.08;9.50;;;;;;;9.83;67.37;101152.69;8425378;34;20534;-72
2021/10/16 09:33:19;;;;;;;15.27;8.75;;;;;;;9.61;67.29;101147.03;8430957;34;20541;-72
2021/10/16 09:38:40;;;;;;;17.80;8.57;;;;;;;9.93;67.57;101147.63;8408775;34;20192;-72
2021/10/16 09:43:43;;;;;;;13.63;7.40;;;;;;;11.06;64.79;101144.34;8430308;34;20500;-73
2021/10/16 09:48:50;;;;;;;17.90;7.65;;;;;;;11.21;63.34;101142.41;8430362;34;20142;-73
2021/10/16 09:54:08;;;;;;;12.35;8.40;;;;;;;10.99;63.79;101146.59;8430440;34;20321;-73
2021/10/16 09:59:16;;;;;;;15.80;7.38;;;;;;;11.25;63.72;101139.41;8431183;34;20181;-73
2021/10/16 10:04:23;;;;;;;14.55;7.80;;;;;;;11.75;62.44;101139.38;8430760;34;20173;-72
2021/10/16 10:09:26;;;;;;;13.80;6.78;;;;;;;12.15;61.08;101148.03;8430880;34;20152;-72
2021/10/16 10:14:30;;;;;;;12.18;6.53;;;;;;;12.53;60.43;101143.38;8431080;34;20462;-73
2021/10/16 10:19:38;;;;;;;14.65;6.35;;;;;;;12.16;60.64;101144.34;8429222;34;20374;-73
2021/10/16 10:24:44;;;;;;;9.50;5.68;;;;;;;12.54;60.08;101147.81;8426157;34;20526;-73
2021/10/16 10:29:50;;;;;;;7.93;3.88;;;;;;;12.77;56.60;101144.16;8421098;34;20189;-72
2021/10/16 10:34:58;;;;;;;10.45;4.50;;;;;;;12.80;58.54;101143.06;8420596;34;21402;-72
2021/10/16 10:40:01;;;;;;;9.43;4.20;;;;;;;12.96;57.40;101140.03;8421042;34;20705;-72
2021/10/16 10:45:05;;;;;;;10.15;4.03;;;;;;;11.76;59.74;101140.22;8421336;34;20259;-73
2021/10/16 10:50:11;;;;;;;9.55;3.33;;;;;;;12.01;58.04;101144.63;8425490;34;20435;-72
2021/10/16 10:55:19;;;;;;;8.45;3.25;;;;;;;11.73;60.16;101142.16;8425024;34;20233;-72
2021/10/16 11:00:39;;;;;;;9.23;3.33;;;;;;;11.64;59.45;101137.47;8425612;34;20238;-73
2021/10/16 11:05:43;;;;;;;9.73;3.45;;;;;;;11.52;59.01;101124.94;8426520;34;20185;-72
2021/10/16 11:10:46;;;;;;;6.45;3.15;;;;;;;11.46;58.81;101138.81;8429869;34;20522;-72
2021/10/16 11:15:58;;;;;;;8.60;3.40;;;;;;;11.41;57.07;101120.34;8430923;34;21165;-72
2021/10/16 11:21:06;;;;;;;8.30;3.70;;;;;;;11.52;57.38;101119.56;8430915;34;20158;-72
2021/10/16 11:26:11;;;;;;;6.40;2.92;;;;;;;11.50;58.25;101122.34;8428131;34;20482;-73
2021/10/16 11:31:14;;;;;;;7.18;3.15;;;;;;;11.49;57.92;101108.97;8424314;34;21120;-72
2021/10/16 11:36:19;;;;;;;8.30;2.83;;;;;;;11.70;57.64;101107.41;8425967;34;20433;-72
2021/10/16 11:41:22;;;;;;;4.93;2.50;;;;;;;11.70;54.67;101110.09;8426433;34;20953;-72
2021/10/16 11:46:25;;;;;;;8.40;3.58;;;;;;;11.81;54.74;101101.22;8423891;34;20173;-72
2021/10/16 11:51:30;;;;;;;7.40;2.22;;;;;;;11.63;54.50;101113.38;8432058;34;20431;-72
2021/10/16 11:56:33;;;;;;;6.28;1.83;;;;;;;11.52;51.94;101103.41;8433137;34;20532;-72
2021/10/16 12:01:44;;;;;;;2.80;1.67;;;;;;;11.60;51.25;101098.31;8441340;33;20427;-72
2021/10/16 12:06:50;;;;;;;3.40;1.63;;;;;;;11.64;50.19;101094.41;8451073;33;20424;-72
2021/10/16 12:12:00;;;;;;;5.07;1.95;;;;;;;11.43;52.14;101090.59;8481731;33;20519;-72
2021/10/16 12:17:08;;;;;;;4.43;1.83;;;;;;;11.10;51.93;101097.44;8480922;33;21700;-71
2021/10/16 12:22:12;;;;;;;2.83;1.98;;;;;;;10.92;52.75;101088.88;8487799;33;20685;-72
2021/10/16 12:27:16;;;;;;;9.25;2.70;;;;;;;10.56;54.80;101095.88;8491897;33;20983;-72
2021/10/16 12:32:20;;;;;;;9.43;2.70;;;;;;;10.80;54.65;101089.72;8490551;33;20330;-72
2021/10/16 12:37:25;;;;;;;6.63;2.33;;;;;;;10.95;54.19;101085.13;8466374;33;20424;-71
2021/10/16 12:42:34;;;;;;;4.28;1.92;;;;;;;10.77;52.66;101085.44;8466947;33;20131;-71
2021/10/16 12:47:37;;;;;;;6.47;2.63;;;;;;;10.77;55.67;101089.97;8485404;33;20527;-71
2021/10/16 12:52:44;;;;;;;7.90;2.65;;;;;;;11.17;55.86;101073.72;8483956;33;20505;-71
2021/10/16 12:57:56;;;;;;;7.78;2.88;;;;;;;11.10;56.94;101081.31;8469485;33;20184;-72
2021/10/16 13:02:59;;;;;;;6.50;3.10;;;;;;;10.88;57.28;101070.38;8454686;33;20183;-73
2021/10/16 13:08:07;;;;;;;8.57;2.55;;;;;;;10.56;54.55;101074.41;8458725;33;20612;-71
2021/10/16 13:13:10;;;;;;;4.35;2.60;;;;;;;10.46;55.82;101070.63;8457001;33;20921;-71
2021/10/16 13:18:13;;;;;;;5.38;2.50;;;;;;;10.59;54.58;101066.13;8456590;33;20978;-72
2021/10/16 13:23:18;;;;;;;4.00;2.05;;;;;;;10.75;52.87;101063.22;8457701;33;20473;-72
2021/10/16 13:28:22;;;;;;;5.10;1.80;;;;;;;10.45;51.56;101054.59;8456229;33;20450;-72
2021/10/16 13:33:25;;;;;;;3.58;1.60;;;;;;;10.83;49.59;101050.09;8454550;33;20558;-72
2021/10/16 13:38:30;;;;;;;2.80;1.15;;;;;;;10.12;50.40;101050.59;8453612;33;20421;-72
2021/10/16 13:43:33;;;;;;;5.43;1.90;;;;;;;10.22;52.24;101049.00;8481413;33;20559;-72
2021/10/16 13:48:36;;;;;;;4.47;1.80;;;;;;;10.58;52.65;101050.94;8487775;33;21005;-71
2021/10/16 13:53:41;;;;;;;2.00;1.48;;;;;;;10.46;53.68;101059.03;8487595;33;20533;-71
2021/10/16 13:58:44;;;;;;;6.45;2.25;;;;;;;10.16;54.78;101049.44;8477038;33;20238;-72
2021/10/16 14:03:47;;;;;;;5.30;1.45;;;;;;;10.15;55.13;101048.59;8456104;33;20160;-72
2021/10/16 14:08:51;;;;;;;4.53;2.20;;;;;;;10.28;56.17;101042.34;8459850;33;20148;-72
2021/10/16 14:13:54;;;;;;;2.70;1.80;;;;;;;10.09;54.39;101048.13;8455519;33;20985;-72
2021/10/16 14:18:58;;;;;;;3.40;1.70;;;;;;;9.88;55.45;101047.78;8454899;33;20575;-72
2021/10/16 14:24:03;;;;;;;3.55;1.63;;;;;;;9.89;56.34;101047.66;8490180;33;20412;-73
2021/10/16 14:29:07;;;;;;;3.28;1.73;;;;;;;9.94;56.78;101042.84;8483785;33;20456;-73
2021/10/16 14:34:10;;;;;;;1.45;1.35;;;;;;;9.86;56.70;101044.34;8487064;33;20256;-72
2021/10/16 14:39:14;;;;;;;4.38;2.22;;;;;;;9.88;57.03;101039.75;8492599;33;20235;-72
2021/10/16 14:44:17;;;;;;;8.35;2.10;;;;;;;9.82;56.80;101043.66;8490077;33;20505;-72
2021/10/16 14:49:20;;;;;;;7.20;1.90;;;;;;;9.82;56.93;101035.63;8488793;33;20543;-72
2021/10/16 14:54:25;;;;;;;5.57;2.20;;;;;;;9.83;56.75;101031.94;8482615;33;20575;-72
2021/10/16 14:59:28;;;;;;;5.72;2.08;;;;;;;9.88;56.79;101037.06;8481734;33;20176;-72
2021/10/16 15:04:31;;;;;;;5.32;1.80;;;;;;;9.93;56.16;101034.91;8460175;33;20144;-71
2021/10/16 15:09:35;;;;;;;4.57;1.92;;;;;;;9.84;56.56;101032.81;8485668;33;20152;-71
2021/10/16 15:14:38;;;;;;;14.07;3.22;;;;;;;9.81;56.87;101033.00;8480749;33;20543;-72
2021/10/16 15:19:41;;;;;;;6.25;2.15;;;;;;;9.74;56.39;101027.22;8479306;33;20424;-71
2021/10/16 15:24:46;;;;;;;7.43;2.53;;;;;;;9.72;56.67;101019.25;8478310;33;20475;-72
2021/10/16 15:29:49;;;;;;;5.75;2.60;;;;;;;9.69;57.81;101014.09;8480864;33;20863;-72
2021/10/16 15:34:52;;;;;;;5.57;2.80;;;;;;;9.69;57.89;101011.41;8487048;33;20610;-72
2021/10/16 15:39:56;;;;;;;6.00;2.80;;;;;;;9.70;57.59;101006.91;8491071;33;20192;-72
2021/10/16 15:44:59;;;;;;;4.05;2.72;;;;;;;9.75;58.52;101006.59;8489759;33;20481;-72
2021/10/16 15:50:04;;;;;;;7.03;2.35;;;;;;;9.71;61.82;101008.66;8489893;33;20563;-72
2021/10/16 15:55:09;;;;;;;4.70;2.60;;;;;;;9.56;63.40;101005.16;8489176;33;21092;-72
2021/10/16 16:00:12;;;;;;;5.68;2.97;;;;;;;9.35;65.68;101017.31;8499268;33;20237;-72
2021/10/16 16:05:16;;;;;;;6.37;2.77;;;;;;;9.16;66.16;101013.16;8493677;33;20435;-71
2021/10/16 16:10:21;;;;;;;8.88;3.20;;;;;;;9.09;63.95;101010.97;8492998;33;20172;-72
2021/10/16 16:15:24;;;;;;;7.45;3.58;;;;;;;9.02;63.70;101003.34;8466684;33;20531;-72
2021/10/16 16:20:29;;;;;;;8.13;4.45;;;;;;;8.96;62.24;101005.53;8485798;33;20925;-71
2021/10/16 16:25:34;;;;;;;9.85;4.75;;;;;;;8.94;62.08;101002.97;8484500;33;20224;-72
2021/10/16 16:30:41;;;;;;;14.30;4.35;;;;;;;8.89;63.61;100994.38;8484058;33;20176;-72
2021/10/16 16:35:45;;;;;;;9.65;4.47;;;;;;;8.71;65.72;101003.56;8480599;33;20198;-72
2021/10/16 16:40:50;;;;;;;23.88;12.07;;;;;;;8.52;66.28;101002.06;8482871;33;20520;-71
2021/10/16 16:45:53;;;;;;;10.07;5.57;;;;;;;8.43;65.81;100991.91;8481602;33;20165;-72
2021/10/16 16:50:56;;;;;;;7.45;4.60;;;;;;;8.40;65.77;100990.25;8451319;33;21062;-72
2021/10/16 16:56:00;;;;;;;34.80;16.65;;;;;;;8.43;65.18;100991.91;8450352;33;20424;-71
2021/10/16 17:01:04;;;;;;;22.60;10.90;;;;;;;8.44;65.84;100998.97;8427499;33;20439;-72
2021/10/16 17:06:07;;;;;;;17.65;8.93;;;;;;;8.35;66.79;101003.06;8449946;33;20830;-71
2021/10/16 17:11:11;;;;;;;24.25;12.30;;;;;;;8.29;67.43;100995.44;8435226;33;20443;-72
2021/10/16 17:16:15;;;;;;;10.82;6.07;;;;;;;8.32;64.33;100997.91;8436125;33;20181;-73
2021/10/16 17:21:19;;;;;;;15.27;8.10;;;;;;;8.42;64.17;101000.91;8479203;33;21005;-73
2021/10/16 17:26:24;;;;;;;10.23;5.05;;;;;;;8.23;66.55;101000.28;8479455;33;20192;-73
2021/10/16 17:31:27;;;;;;;40.30;16.77;;;;;;;8.13;67.47;101005.34;8488234;33;20184;-73
2021/10/16 17:36:44;;;;;;;51.58;23.88;;;;;;;8.10;67.70;101000.19;8500648;33;20151;-73
2021/10/16 17:41:49;;;;;;;19.77;9.13;;;;;;;8.16;67.64;101006.03;8500185;33;21260;-73
2021/10/16 17:46:52;;;;;;;12.18;7.35;;;;;;;8.20;67.86;101012.06;8472487;33;20137;-73
2021/10/16 17:51:55;;;;;;;10.10;5.20;;;;;;;8.17;67.70;101013.13;8487534;33;20448;-73
2021/10/16 17:57:00;;;;;;;7.88;5.03;;;;;;;8.13;66.52;101026.75;8471647;33;20535;-73
2021/10/16 18:02:03;;;;;;;10.38;5.70;;;;;;;8.13;66.28;101019.59;8482395;33;20155;-73
2021/10/16 18:07:07;;;;;;;7.57;5.93;;;;;;;7.91;68.59;101019.16;8480380;33;20637;-73
2021/10/16 18:12:11;;;;;;;8.80;5.38;;;;;;;7.79;69.41;101019.88;8479755;33;20163;-74
2021/10/16 18:17:14;;;;;;;13.95;6.20;;;;;;;7.89;68.65;101021.06;8480638;33;20532;-72
2021/10/16 18:22:18;;;;;;;18.92;8.82;;;;;;;8.02;67.94;101016.72;8475838;33;20494;-73
2021/10/16 18:27:23;;;;;;;24.85;9.35;;;;;;;8.06;68.94;101023.56;8448387;33;20429;-73
2021/10/16 18:32:27;;;;;;;12.82;6.53;;;;;;;7.88;69.27;101022.03;8451844;33;20303;-73
2021/10/16 18:37:30;;;;;;;13.73;7.05;;;;;;;7.83;69.27;101013.41;8446860;33;20232;-73
2021/10/16 18:42:34;;;;;;;11.05;7.75;;;;;;;7.87;68.76;101018.50;8451780;33;21833;-73
2021/10/16 18:47:37;;;;;;;12.98;7.40;;;;;;;7.80;68.81;101021.63;8453002;33;20457;-73
2021/10/16 18:52:40;;;;;;;16.45;8.68;;;;;;;7.71;68.77;101020.38;8453900;33;20957;-73
2021/10/16 18:57:45;;;;;;;12.70;7.53;;;;;;;7.56;69.57;101008.72;8451483;33;22055;-74
2021/10/16 19:02:48;;;;;;;14.02;7.20;;;;;;;7.47;68.38;101009.28;8447877;33;20452;-73
2021/10/16 19:07:51;;;;;;;18.40;9.90;;;;;;;7.34;69.29;101006.44;8419784;33;20876;-73
2021/10/16 19:12:56;;;;;;;17.20;8.63;;;;;;;7.06;70.45;101010.69;8416095;34;20477;-73
2021/10/16 19:18:02;;;;;;;13.63;7.68;;;;;;;6.83;71.98;101014.63;8414404;34;20300;-73
2021/10/16 19:23:05;;;;;;;11.45;7.47;;;;;;;6.60;72.65;100996.34;8418981;34;20943;-74
2021/10/16 19:28:11;;;;;;;15.15;8.75;;;;;;;6.56;73.27;100997.47;8395457;34;20153;-73
2021/10/16 19:33:14;;;;;;;17.48;9.32;;;;;;;6.62;72.95;100989.09;8419346;34;20495;-73
2021/10/16 19:38:17;;;;;;;13.88;8.43;;;;;;;6.65;72.06;100988.09;8423318;34;20450;-73
2021/10/16 19:43:22;;;;;;;15.90;8.05;;;;;;;6.64;71.75;100984.56;8421187;34;20162;-73
2021/10/16 19:48:26;;;;;;;16.13;6.53;;;;;;;6.65;70.94;100988.09;8395939;34;20500;-73
2021/10/16 19:53:29;;;;;;;12.27;6.65;;;;;;;6.70;70.72;100989.56;8420040;34;20185;-73
2021/10/16 19:58:33;;;;;;;11.90;6.10;;;;;;;6.70;70.54;100981.53;8422754;34;20210;-73
2021/10/16 20:03:36;;;;;;;12.95;6.10;;;;;;;6.74;70.00;100971.53;8425338;34;20472;-73
2021/10/16 20:08:40;;;;;;;20.17;9.07;;;;;;;6.60;70.70;100964.28;8427137;34;20968;-73
2021/10/16 20:13:46;;;;;;;15.10;8.40;;;;;;;6.39;71.28;100964.53;8426112;34;20595;-73
2021/10/16 20:18:49;;;;;;;16.75;9.23;;;;;;;6.22;71.82;100967.22;8428000;34;20889;-73
2021/10/16 20:23:54;;;;;;;12.95;8.07;;;;;;;6.17;71.65;100966.63;8438654;34;20476;-74
2021/10/16 20:28:58;;;;;;;16.20;8.02;;;;;;;6.11;72.00;100957.13;8429180;34;20366;-73
2021/10/16 20:34:02;;;;;;;14.48;7.22;;;;;;;6.12;71.68;100963.34;8425232;34;20497;-73
2021/10/16 20:39:05;;;;;;;12.63;6.55;;;;;;;6.07;71.66;100968.06;8425512;34;20166;-73
2021/10/16 20:44:10;;;;;;;13.93;7.05;;;;;;;6.03;71.75;100974.50;8422435;34;20154;-73
2021/10/16 20:49:13;;;;;;;12.10;6.47;;;;;;;6.00;71.61;100970.19;8424904;34;20709;-73
2021/10/16 20:54:17;;;;;;;11.25;6.40;;;;;;;5.83;71.64;100981.72;8427415;34;20185;-73
2021/10/16 20:59:21;;;;;;;17.33;7.13;;;;;;;5.62;72.31;100985.50;8440456;34;20141;-73
2021/10/16 21:04:24;;;;;;;13.77;6.60;;;;;;;5.42;72.71;101005.16;8434250;34;20525;-72
2021/10/16 21:09:27;;;;;;;12.55;6.32;;;;;;;5.25;73.48;101012.19;8405182;34;20988;-73
2021/10/16 21:14:32;;;;;;;9.35;6.20;;;;;;;5.21;74.15;101009.72;8433698;34;20413;-73
2021/10/16 21:19:35;;;;;;;13.35;7.28;;;;;;;5.24;74.31;101005.13;8404859;34;20189;-73
2021/10/16 21:24:38;;;;;;;12.25;6.97;;;;;;;5.16;74.13;101001.13;8446467;34;20882;-73
2021/10/16 21:29:42;;;;;;;12.85;8.30;;;;;;;5.08;74.53;101003.31;8445572;34;20244;-72
2021/10/16 21:34:57;;;;;;;16.45;8.50;;;;;;;5.00;74.46;100998.34;8437304;34;20457;-73
2021/10/16 21:40:00;;;;;;;12.90;8.80;;;;;;;5.00;74.93;100991.22;8430676;34;20519;-73
2021/10/16 21:45:06;;;;;;;12.80;8.77;;;;;;;4.94;75.10;100988.81;8430064;34;20429;-73
2021/10/16 21:50:11;;;;;;;19.40;10.10;;;;;;;5.01;75.50;100979.59;8431068;34;20426;-73
2021/10/16 21:55:14;;;;;;;13.98;9.73;;;;;;;5.15;75.33;100986.06;8430804;34;20595;-73
2021/10/16 22:00:32;;;;;;;14.05;8.80;;;;;;;5.08;75.41;100982.84;8443428;34;20507;-73
2021/10/16 22:05:36;;;;;;;13.68;8.75;;;;;;;4.90;75.38;100984.56;8444310;34;20220;-73
2021/10/16 22:10:44;;;;;;;17.27;8.00;;;;;;;5.05;75.41;100969.69;8447495;33;20154;-73
2021/10/16 22:15:49;;;;;;;10.43;7.45;;;;;;;5.13;75.10;100953.31;8441551;33;20444;-73
2021/10/16 22:20:52;;;;;;;14.88;8.02;;;;;;;5.10;75.18;100958.78;8465104;33;20425;-73
2021/10/16 22:25:55;;;;;;;12.90;7.78;;;;;;;5.03;75.11;100951.09;8463445;33;20437;-73
2021/10/16 22:31:00;;;;;;;14.50;8.27;;;;;;;5.07;75.11;100946.47;8498439;33;21100;-73
2021/10/16 22:36:03;;;;;;;15.65;7.95;;;;;;;5.21;74.51;100943.13;8503895;33;20502;-73
2021/10/16 22:41:07;;;;;;;10.85;7.43;;;;;;;5.24;74.17;100959.00;8502231;33;20649;-73
2021/10/16 22:46:11;;;;;;;13.90;7.38;;;;;;;5.17;74.06;100969.06;8505865;33;20153;-73
2021/10/16 22:51:14;;;;;;;15.57;7.25;;;;;;;5.21;74.08;100951.13;8477512;33;20448;-73
2021/10/16 22:56:18;;;;;;;12.27;6.20;;;;;;;5.32;73.51;100956.81;8503280;33;20419;-73
2021/10/16 23:01:22;;;;;;;9.10;6.63;;;;;;;5.40;73.76;100961.72;8505976;33;21120;-73
2021/10/16 23:06:26;;;;;;;11.38;7.60;;;;;;;5.39;73.58;100952.03;8480799;33;20187;-73
2021/10/16 23:11:29;;;;;;;15.48;8.10;;;;;;;5.32;73.56;100954.16;8505312;33;20606;-73
2021/10/16 23:16:33;;;;;;;13.25;8.15;;;;;;;5.18;73.90;100960.13;8491295;33;20184;-73
2021/10/16 23:21:36;;;;;;;11.55;7.50;;;;;;;5.13;74.12;100966.63;8491277;33;20613;-73
2021/10/16 23:26:39;;;;;;;12.75;7.72;;;;;;;5.14;74.18;100960.38;8490955;33;20429;-73
2021/10/16 23:31:44;;;;;;;13.48;7.22;;;;;;;5.11;74.44;100965.84;8490401;33;20428;-73
2021/10/16 23:36:51;;;;;;;16.30;8.15;;;;;;;5.09;74.91;100962.41;8484999;33;21208;-73
2021/10/16 23:41:55;;;;;;;14.18;7.88;;;;;;;5.14;74.93;100965.72;8491187;33;20456;-73